Fabio Alberto León Bentley Airport

Airport
ICAO code: 
SKMU
IATA Code: 
MVP
Summary
ICAO Region: 
CARSAM
Territory: 
Location: 
Mitu, Vaupes Department
Serving: 
Mitu
Elevation: 
680 ft
Coordinates: 
Aerial View: 
1° 15' 11.968" N, 70° 14' 1.773" W
Metar
Observation
SKMU 231900Z VRB04KT 9999 SCT035 32/23 Q1008 RMK A2977 VCSH/N
Station
Mitu
Date/Time
2022-01-23 19:00:00
Wind speed
04 kts
Lowest cloud amount
scattered clouds
Temperature
32°C
Dew point
23°C
Humidity
59%
QNH
1008 hPa
Weather condition
n/a

Fabio Alberto León Bentley Airport is an airport serving Mitú in the Vaupés Department of Colombia. It is next to the Vaupés River and runs along the entire length of the city.

Climatology

Tropical rainforest climate (Köppen climate classification Af)

Runways

Designator Length Width Surface Rops
2/20 1795 20 ASP No/No
Airport map: 
Aerial View: 

SKYbrary Partners:

Safety knowledge contributed by: